Time;durP1;ratioP1;P1;durP2;ratioP2;P2;SDS_P1;SDS_P2;PMS_P1;PMS_P2;Temp;Humidity;BMP_temperature;BMP_pressure;BME280_temperature;BME280_humidity;BME280_pressure;Samples;Min_cycle;Max_cycle;Signal;HPM_P1;HPM_P2
2020/12/31 00:00:26;;;;;;;2.17;1.70;;;16.30;28.20;;;;;;5107539;28;20599;-61
2020/12/31 00:02:52;;;;;;;1.30;1.20;;;16.30;28.30;;;;;;5096564;28;20172;-60
2020/12/31 00:05:18;;;;;;;1.20;0.90;;;16.30;28.20;;;;;;5114890;28;20553;-58
2020/12/31 00:07:43;;;;;;;1.40;1.20;;;16.30;28.20;;;;;;5114437;28;20158;-59
2020/12/31 00:10:09;;;;;;;0.70;0.70;;;16.30;28.30;;;;;;5114781;28;20175;-59
2020/12/31 00:12:35;;;;;;;0.83;0.83;;;16.30;28.30;;;;;;5114638;28;20236;-59
2020/12/31 00:15:00;;;;;;;1.23;1.03;;;16.30;28.30;;;;;;5096723;28;20551;-59
2020/12/31 00:17:26;;;;;;;1.57;0.90;;;16.30;28.30;;;;;;5114659;28;20605;-59
2020/12/31 00:19:52;;;;;;;1.10;1.00;;;16.30;28.30;;;;;;5115163;28;20153;-59
2020/12/31 00:22:17;;;;;;;1.30;1.20;;;16.30;28.30;;;;;;5114060;28;20660;-59
2020/12/31 00:24:43;;;;;;;1.03;0.93;;;16.30;28.30;;;;;;5114662;28;20149;-59
2020/12/31 00:27:08;;;;;;;1.03;0.93;;;16.30;28.30;;;;;;5096455;28;20532;-59
2020/12/31 00:29:34;;;;;;;1.10;1.00;;;16.30;28.30;;;;;;5114440;28;20153;-59
2020/12/31 00:32:00;;;;;;;1.13;0.97;;;16.30;28.30;;;;;;5114299;28;20541;-59
2020/12/31 00:34:25;;;;;;;1.20;1.10;;;16.30;28.30;;;;;;5114611;28;20172;-59
2020/12/31 00:36:54;;;;;;;1.10;0.97;;;16.30;28.30;;;;;;5114508;28;20214;-60
2020/12/31 00:39:23;;;;;;;1.40;1.15;;;16.30;28.30;;;;;;5114906;28;20153;-60
2020/12/31 00:41:49;;;;;;;2.20;1.10;;;16.30;28.30;;;;;;5114228;28;20153;-60
2020/12/31 00:44:14;;;;;;;0.97;0.97;;;16.30;28.30;;;;;;5114668;28;20157;-60
2020/12/31 00:46:40;;;;;;;1.00;0.90;;;16.30;28.30;;;;;;5114140;28;20153;-60
2020/12/31 00:49:06;;;;;;;0.70;0.70;;;16.30;28.30;;;;;;5095994;28;20185;-60
2020/12/31 00:51:32;;;;;;;1.20;0.93;;;16.20;28.30;;;;;;5114360;28;20410;-60
2020/12/31 00:53:57;;;;;;;1.93;1.00;;;16.30;28.30;;;;;;5095742;28;20554;-60
2020/12/31 00:56:23;;;;;;;2.10;1.10;;;16.30;28.30;;;;;;5095962;28;20208;-60
2020/12/31 00:58:49;;;;;;;1.33;1.17;;;16.30;28.40;;;;;;5114278;28;20748;-60
2020/12/31 01:01:15;;;;;;;1.30;1.17;;;16.30;28.40;;;;;;5100272;28;20390;-58
2020/12/31 01:03:40;;;;;;;0.90;0.80;;;16.30;28.40;;;;;;5121098;28;20256;-58
2020/12/31 01:06:06;;;;;;;0.90;0.90;;;16.30;28.40;;;;;;5121055;28;20635;-59
2020/12/31 01:08:32;;;;;;;0.90;0.90;;;16.30;28.40;;;;;;5102199;28;20177;-59
2020/12/31 01:10:57;;;;;;;1.37;1.00;;;16.30;28.40;;;;;;5102773;28;20645;-59
2020/12/31 01:13:26;;;;;;;1.50;1.40;;;16.30;28.40;;;;;;5120993;28;20691;-59
2020/12/31 01:15:52;;;;;;;1.30;1.17;;;16.30;28.40;;;;;;5120698;28;20650;-59
2020/12/31 01:18:17;;;;;;;0.90;0.90;;;16.30;28.40;;;;;;5120903;28;20157;-60
2020/12/31 01:20:43;;;;;;;1.13;1.03;;;16.30;28.40;;;;;;5120851;28;20164;-59
2020/12/31 01:23:09;;;;;;;0.80;0.80;;;16.20;28.30;;;;;;5102195;28;20236;-60
2020/12/31 01:25:35;;;;;;;2.87;1.40;;;16.20;28.40;;;;;;5120670;28;20678;-60
2020/12/31 01:28:01;;;;;;;2.60;1.00;;;16.20;28.30;;;;;;5120691;28;20189;-60
2020/12/31 01:30:27;;;;;;;1.30;1.20;;;16.30;28.40;;;;;;5120623;28;20608;-59
2020/12/31 01:32:53;;;;;;;1.00;0.90;;;16.20;28.40;;;;;;5102434;28;20165;-59
2020/12/31 01:35:19;;;;;;;1.30;1.00;;;16.20;28.40;;;;;;5120811;28;20145;-59
2020/12/31 01:37:45;;;;;;;1.15;1.05;;;16.30;28.50;;;;;;5119968;28;20200;-60
2020/12/31 01:40:11;;;;;;;1.57;1.17;;;16.20;28.40;;;;;;5121035;28;20157;-60
2020/12/31 01:42:41;;;;;;;1.27;0.98;;;16.20;28.40;;;;;;5120564;28;20149;-59
2020/12/31 01:45:07;;;;;;;1.20;0.95;;;16.20;28.40;;;;;;5120628;28;20180;-59
2020/12/31 01:47:33;;;;;;;1.03;0.90;;;16.20;28.40;;;;;;5120487;28;20570;-59
2020/12/31 01:50:00;;;;;;;0.80;0.80;;;16.20;28.40;;;;;;5120425;28;20196;-59
2020/12/31 01:52:26;;;;;;;1.02;1.00;;;16.20;28.40;;;;;;5101199;28;20635;-59
2020/12/31 01:54:55;;;;;;;1.05;0.95;;;16.20;28.40;;;;;;5120407;28;20153;-59
2020/12/31 01:57:24;;;;;;;1.88;1.25;;;16.20;28.50;;;;;;5102363;28;20185;-59
2020/12/31 01:59:50;;;;;;;1.23;1.05;;;16.20;28.50;;;;;;5101855;28;20220;-59
2020/12/31 02:02:16;;;;;;;1.20;1.10;;;16.20;28.50;;;;;;5120252;28;20192;-59
2020/12/31 02:04:42;;;;;;;1.27;1.17;;;16.20;28.50;;;;;;5120346;28;20493;-59
2020/12/31 02:07:08;;;;;;;1.35;1.20;;;16.20;28.50;;;;;;5119855;28;20164;-59
2020/12/31 02:09:34;;;;;;;1.07;0.97;;;16.20;28.50;;;;;;5120481;28;20161;-59
2020/12/31 02:12:04;;;;;;;0.85;0.85;;;16.20;28.50;;;;;;5118073;28;20265;-59
2020/12/31 02:14:30;;;;;;;1.00;0.90;;;16.20;28.50;;;;;;5117164;28;20153;-59
2020/12/31 02:16:56;;;;;;;1.30;1.20;;;16.20;28.50;;;;;;5098730;28;20200;-58
2020/12/31 02:19:25;;;;;;;1.17;1.10;;;16.20;28.50;;;;;;5117293;28;20420;-59
2020/12/31 02:21:52;;;;;;;1.05;0.88;;;16.20;28.50;;;;;;5117348;28;20161;-59
2020/12/31 02:24:18;;;;;;;2.03;1.10;;;16.20;28.50;;;;;;5116488;28;20154;-59
2020/12/31 02:26:47;;;;;;;1.05;0.90;;;16.20;28.50;;;;;;5116966;28;20160;-59
2020/12/31 02:29:14;;;;;;;3.38;0.98;;;16.10;28.50;;;;;;5116798;28;20168;-59
2020/12/31 02:31:41;;;;;;;1.30;1.00;;;16.10;28.50;;;;;;5116638;28;20613;-59
2020/12/31 02:34:08;;;;;;;1.30;1.17;;;16.10;28.50;;;;;;5116726;28;20161;-59
2020/12/31 02:36:36;;;;;;;0.80;0.80;;;16.20;28.50;;;;;;5081487;28;20728;-59
2020/12/31 02:39:06;;;;;;;1.15;0.90;;;16.10;28.50;;;;;;5116298;28;20605;-59
2020/12/31 02:41:32;;;;;;;1.40;1.00;;;16.10;28.50;;;;;;5116551;28;20191;-59
2020/12/31 02:43:57;;;;;;;1.10;1.00;;;16.10;28.50;;;;;;5116987;28;20531;-58
2020/12/31 02:46:23;;;;;;;1.30;1.00;;;16.10;28.50;;;;;;5116132;28;20399;-58
2020/12/31 02:48:50;;;;;;;1.50;1.23;;;16.10;28.50;;;;;;5116642;28;20160;-59
2020/12/31 02:51:17;;;;;;;1.10;1.00;;;16.10;28.50;;;;;;5098201;28;20181;-60
2020/12/31 02:53:43;;;;;;;2.53;1.20;;;16.10;28.60;;;;;;5115902;28;20249;-60
2020/12/31 02:56:23;;;;;;;1.20;1.00;;;16.10;28.50;;;;;;5097957;28;20185;-59
2020/12/31 02:58:50;;;;;;;1.00;0.90;;;16.10;28.60;;;;;;5116247;28;20216;-59
2020/12/31 03:01:17;;;;;;;1.10;1.00;;;16.10;28.60;;;;;;5116144;28;20181;-60
2020/12/31 03:03:42;;;;;;;2.28;1.40;;;16.10;28.50;;;;;;5115958;28;20600;-60
2020/12/31 03:06:09;;;;;;;1.43;1.00;;;16.10;28.50;;;;;;5116388;28;20161;-59
2020/12/31 03:08:35;;;;;;;0.70;0.70;;;16.10;28.60;;;;;;5115342;28;20426;-60
2020/12/31 03:11:06;;;;;;;1.10;0.95;;;16.10;28.60;;;;;;5115911;28;20701;-59
2020/12/31 03:13:32;;;;;;;1.67;1.15;;;16.10;28.60;;;;;;5131805;27;20657;-59
2020/12/31 03:15:57;;;;;;;2.20;1.80;;;16.10;28.60;;;;;;5116004;28;20192;-59
2020/12/31 03:18:23;;;;;;;1.33;0.93;;;16.10;28.60;;;;;;5115954;28;20395;-59
2020/12/31 03:20:50;;;;;;;1.25;1.10;;;16.10;28.60;;;;;;5116020;28;20192;-59
2020/12/31 03:23:16;;;;;;;1.60;1.35;;;16.10;28.60;;;;;;5097116;28;20653;-59
2020/12/31 03:25:43;;;;;;;1.20;1.00;;;16.10;28.60;;;;;;5115622;28;20171;-59
2020/12/31 03:28:09;;;;;;;1.58;1.35;;;16.10;28.60;;;;;;5115766;28;20149;-59
2020/12/31 03:30:36;;;;;;;1.02;0.93;;;16.10;28.60;;;;;;5115739;28;20149;-58
2020/12/31 03:33:02;;;;;;;1.42;1.02;;;16.10;28.60;;;;;;5115549;28;20179;-59
2020/12/31 03:35:28;;;;;;;1.67;1.13;;;16.10;28.60;;;;;;5115676;28;20203;-58
2020/12/31 03:37:54;;;;;;;1.37;1.27;;;16.10;29.20;;;;;;5115108;28;20590;-59
2020/12/31 03:40:20;;;;;;;1.40;1.10;;;16.10;28.60;;;;;;5097116;28;20202;-59
2020/12/31 03:42:46;;;;;;;2.15;1.42;;;16.10;28.60;;;;;;5115604;28;20520;-59
2020/12/31 03:45:12;;;;;;;1.10;1.00;;;16.10;28.60;;;;;;5115284;28;20608;-59
2020/12/31 03:47:38;;;;;;;1.80;1.13;;;16.10;28.60;;;;;;5115397;28;20890;-59
2020/12/31 03:50:05;;;;;;;1.40;1.30;;;16.10;28.60;;;;;;5115545;28;20483;-59
2020/12/31 03:52:31;;;;;;;1.17;1.05;;;16.10;28.60;;;;;;5114665;28;20196;-59
2020/12/31 03:54:57;;;;;;;1.17;1.07;;;16.10;28.60;;;;;;5115126;28;20173;-59
2020/12/31 03:57:22;;;;;;;1.67;1.00;;;16.10;28.60;;;;;;5115035;28;20203;-59
2020/12/31 03:59:48;;;;;;;1.83;1.10;;;16.10;28.60;;;;;;5115190;28;20212;-59
2020/12/31 04:02:14;;;;;;;1.42;1.25;;;16.10;28.60;;;;;;5115096;28;20154;-59
2020/12/31 04:04:40;;;;;;;1.13;1.00;;;16.10;28.60;;;;;;5115148;28;20651;-60
2020/12/31 04:07:06;;;;;;;0.73;0.70;;;18.10;30.00;;;;;;5114177;28;20158;-60
2020/12/31 04:09:31;;;;;;;1.10;1.00;;;16.10;28.60;;;;;;5114894;28;20535;-59
2020/12/31 04:11:58;;;;;;;1.23;1.00;;;16.10;28.60;;;;;;5114927;28;20411;-60
2020/12/31 04:14:24;;;;;;;1.20;1.05;;;16.10;28.60;;;;;;5115007;28;20153;-60
2020/12/31 04:16:50;;;;;;;0.85;0.80;;;16.00;28.60;;;;;;5114818;28;20453;-60
2020/12/31 04:19:16;;;;;;;5.13;1.27;;;16.00;28.60;;;;;;5114933;28;20164;-60
2020/12/31 04:21:41;;;;;;;1.13;1.03;;;16.00;28.70;;;;;;5096793;28;20532;-60
2020/12/31 04:24:07;;;;;;;2.10;1.27;;;16.00;28.60;;;;;;5114112;28;20402;-60
2020/12/31 04:26:33;;;;;;;1.27;1.10;;;16.10;28.70;;;;;;5114804;28;20244;-59
2020/12/31 04:28:58;;;;;;;1.10;0.90;;;16.00;28.60;;;;;;5114789;28;20199;-59
2020/12/31 04:31:24;;;;;;;1.77;1.30;;;16.10;28.70;;;;;;5096619;28;20156;-59
2020/12/31 04:33:50;;;;;;;1.77;1.10;;;16.00;28.60;;;;;;5114485;28;20534;-59
2020/12/31 04:36:17;;;;;;;1.20;0.90;;;16.00;28.60;;;;;;5114084;28;20185;-60
2020/12/31 04:38:43;;;;;;;0.80;0.80;;;16.00;28.60;;;;;;5113927;28;20247;-60
2020/12/31 04:41:08;;;;;;;1.10;0.83;;;16.00;28.60;;;;;;5114580;28;20604;-60
2020/12/31 04:43:35;;;;;;;1.10;0.80;;;16.00;28.60;;;;;;5114311;28;20149;-60
2020/12/31 04:46:06;;;;;;;1.35;1.13;;;16.00;28.70;;;;;;5114570;28;20275;-60
2020/12/31 04:48:39;;;;;;;1.45;1.00;;;16.00;28.70;;;;;;5114431;28;20161;-60
2020/12/31 04:51:11;;;;;;;1.27;1.08;;;16.00;28.70;;;;;;5114301;28;20222;-60
2020/12/31 04:53:38;;;;;;;0.75;0.73;;;16.00;28.70;;;;;;5114011;28;20161;-60
2020/12/31 04:56:04;;;;;;;3.85;1.30;;;16.00;28.60;;;;;;5114293;28;20177;-60
2020/12/31 04:58:30;;;;;;;1.15;0.90;;;16.00;28.70;;;;;;5114159;28;20239;-60
2020/12/31 05:00:56;;;;;;;1.15;1.05;;;16.00;28.70;;;;;;5114329;28;20161;-60
2020/12/31 05:03:25;;;;;;;1.40;1.10;;;16.00;28.70;;;;;;5095847;28;20605;-60
2020/12/31 05:05:56;;;;;;;1.10;1.00;;;15.80;28.50;;;;;;5114398;28;20511;-59
2020/12/31 05:08:29;;;;;;;1.23;1.13;;;16.00;28.70;;;;;;5113870;28;20183;-59
2020/12/31 05:10:56;;;;;;;2.15;0.98;;;16.00;28.70;;;;;;5114515;28;20196;-59
2020/12/31 05:13:22;;;;;;;1.20;1.10;;;16.00;28.70;;;;;;5114040;28;20206;-58
2020/12/31 05:15:48;;;;;;;1.57;1.47;;;16.00;28.70;;;;;;5095800;28;20623;-60
2020/12/31 05:18:28;;;;;;;1.50;1.00;;;16.00;28.70;;;;;;5114138;28;20745;-59
2020/12/31 05:20:55;;;;;;;1.25;1.00;;;16.00;28.70;;;;;;5114098;28;20433;-59
2020/12/31 05:23:23;;;;;;;1.30;1.20;;;16.00;28.70;;;;;;5113425;28;20149;-59
2020/12/31 05:25:49;;;;;;;1.50;1.40;;;16.00;28.70;;;;;;5114030;28;20165;-59
2020/12/31 05:28:34;;;;;;;1.70;1.10;;;16.00;28.70;;;;;;5114250;28;20239;-59
2020/12/31 05:31:10;;;;;;;1.90;0.95;;;16.00;28.70;;;;;;5113951;28;20177;-59
2020/12/31 05:33:40;;;;;;;1.27;0.90;;;16.00;28.70;;;;;;5095469;28;20198;-59
2020/12/31 05:36:29;;;;;;;1.85;1.17;;;16.00;28.70;;;;;;5113804;28;20211;-59
2020/12/31 05:38:55;;;;;;;1.95;1.05;;;16.00;28.70;;;;;;5095443;28;20172;-60
2020/12/31 05:41:24;;;;;;;1.60;1.50;;;15.90;28.60;;;;;;5095685;28;20165;-60
2020/12/31 05:44:01;;;;;;;1.17;1.05;;;16.00;28.70;;;;;;5095495;28;20176;-60
2020/12/31 05:46:29;;;;;;;1.10;0.90;;;16.00;28.70;;;;;;5113882;28;20153;-60
2020/12/31 05:49:05;;;;;;;1.13;1.02;;;16.00;28.70;;;;;;5117005;28;20604;-60
2020/12/31 05:51:35;;;;;;;1.30;0.95;;;16.00;28.70;;;;;;5117515;28;20665;-59
2020/12/31 05:54:11;;;;;;;1.30;1.20;;;15.90;28.70;;;;;;5117032;28;20188;-59
2020/12/31 05:56:38;;;;;;;1.10;0.82;;;15.90;28.70;;;;;;5117745;28;20181;-60
2020/12/31 05:59:26;;;;;;;2.47;0.88;;;16.00;28.70;;;;;;5117398;28;20217;-59
2020/12/31 06:01:55;;;;;;;1.30;1.20;;;15.90;28.70;;;;;;5117496;28;20153;-59
2020/12/31 06:04:44;;;;;;;2.13;1.10;;;16.00;28.80;;;;;;5117495;28;20164;-59
2020/12/31 06:07:33;;;;;;;0.70;0.70;;;16.00;28.70;;;;;;5116823;28;20161;-60
2020/12/31 06:10:06;;;;;;;2.35;1.15;;;15.90;28.70;;;;;;5117641;28;20154;-60
2020/12/31 06:12:49;;;;;;;1.13;0.88;;;15.90;28.70;;;;;;5117182;28;20176;-60
2020/12/31 06:15:22;;;;;;;0.80;0.70;;;15.90;28.70;;;;;;5117243;28;20152;-60
2020/12/31 06:17:49;;;;;;;1.50;1.20;;;15.90;28.70;;;;;;5117385;28;20192;-60
2020/12/31 06:20:19;;;;;;;0.93;0.93;;;15.90;28.70;;;;;;5117058;28;20149;-59
2020/12/31 06:23:10;;;;;;;1.20;0.90;;;15.90;28.70;;;;;;5116531;28;20173;-60
2020/12/31 06:25:44;;;;;;;1.05;1.00;;;15.90;28.70;;;;;;5117181;28;20196;-60
2020/12/31 06:28:10;;;;;;;1.23;1.10;;;15.90;28.70;;;;;;5117194;28;20169;-60
2020/12/31 06:30:46;;;;;;;1.15;1.02;;;15.90;28.70;;;;;;5116767;28;20145;-60
2020/12/31 06:33:20;;;;;;;0.82;0.82;;;15.90;28.70;;;;;;5116758;28;20160;-60
2020/12/31 06:35:49;;;;;;;1.30;1.20;;;15.90;28.70;;;;;;5116633;28;20149;-60
2020/12/31 06:38:26;;;;;;;1.13;1.00;;;15.90;28.70;;;;;;5116298;28;20236;-60
2020/12/31 06:40:54;;;;;;;1.00;0.90;;;15.90;28.70;;;;;;5116905;28;20153;-60
2020/12/31 06:43:36;;;;;;;1.02;0.90;;;15.90;28.70;;;;;;5116626;28;20614;-60
2020/12/31 06:46:19;;;;;;;0.98;0.88;;;16.00;28.80;;;;;;5116706;28;20198;-60
2020/12/31 06:48:54;;;;;;;2.78;1.20;;;15.90;28.70;;;;;;5098308;28;20255;-60
2020/12/31 06:51:26;;;;;;;0.98;0.90;;;15.90;28.70;;;;;;5116527;28;20160;-60
2020/12/31 06:53:52;;;;;;;1.27;1.15;;;15.90;28.70;;;;;;5115952;28;20240;-59
2020/12/31 06:56:42;;;;;;;1.30;1.20;;;15.90;28.70;;;;;;5116228;28;20226;-59
2020/12/31 06:59:24;;;;;;;1.27;1.10;;;15.90;28.70;;;;;;5115922;28;20273;-59
2020/12/31 07:01:49;;;;;;;1.27;1.02;;;15.90;28.70;;;;;;5116358;28;20246;-59
2020/12/31 07:04:33;;;;;;;1.43;1.33;;;15.90;28.70;;;;;;5116245;28;20604;-59
2020/12/31 07:07:00;;;;;;;1.40;0.95;;;15.90;28.70;;;;;;5115754;28;20148;-59
2020/12/31 07:09:33;;;;;;;1.58;1.35;;;15.90;28.70;;;;;;5097957;28;20157;-59
2020/12/31 07:12:04;;;;;;;1.00;1.00;;;15.90;28.70;;;;;;5116227;28;20153;-59
2020/12/31 07:14:32;;;;;;;1.15;1.00;;;15.90;28.70;;;;;;5116204;28;20181;-59
2020/12/31 07:17:00;;;;;;;1.60;0.73;;;15.90;28.70;;;;;;5115734;28;20169;-59
2020/12/31 07:19:38;;;;;;;1.10;1.00;;;15.90;28.70;;;;;;5115872;28;20146;-59
2020/12/31 07:22:17;;;;;;;1.23;1.10;;;15.90;28.70;;;;;;5115521;28;20553;-59
2020/12/31 07:24:56;;;;;;;1.25;1.10;;;15.90;28.70;;;;;;5116037;28;20157;-59
2020/12/31 07:27:30;;;;;;;1.08;0.90;;;15.90;28.60;;;;;;5115828;28;20226;-59
2020/12/31 07:29:58;;;;;;;1.30;1.05;;;15.90;29.20;;;;;;5115791;28;20260;-59
2020/12/31 07:32:54;;;;;;;0.95;0.95;;;15.90;29.20;;;;;;5115473;28;20154;-60
2020/12/31 07:35:40;;;;;;;0.90;0.80;;;15.90;28.60;;;;;;5115583;28;20236;-59
2020/12/31 07:38:11;;;;;;;1.20;1.10;;;16.00;28.70;;;;;;5114641;28;20537;-60
2020/12/31 07:40:45;;;;;;;0.80;0.70;;;16.00;28.60;;;;;;5115329;28;20149;-59
2020/12/31 07:43:22;;;;;;;1.10;1.00;;;16.00;28.60;;;;;;5131061;27;20205;-60
2020/12/31 07:45:56;;;;;;;1.00;0.90;;;16.00;28.60;;;;;;5115680;28;20156;-60
2020/12/31 07:48:23;;;;;;;1.60;1.50;;;16.00;28.60;;;;;;5115277;28;20176;-60
2020/12/31 07:50:57;;;;;;;0.80;0.80;;;16.00;28.60;;;;;;5115011;28;20176;-59
2020/12/31 07:53:26;;;;;;;0.80;0.70;;;16.00;28.60;;;;;;5114889;28;20251;-59
2020/12/31 07:55:53;;;;;;;1.02;0.85;;;16.00;28.60;;;;;;5114978;28;20622;-59
2020/12/31 07:58:30;;;;;;;1.15;0.95;;;16.00;28.50;;;;;;5115024;28;20154;-60
2020/12/31 08:01:04;;;;;;;1.23;1.13;;;16.00;28.50;;;;;;5115394;28;20161;-60
2020/12/31 08:03:30;;;;;;;0.90;0.90;;;16.00;28.50;;;;;;5114700;28;20239;-59
2020/12/31 08:06:00;;;;;;;1.37;1.10;;;16.00;28.40;;;;;;5114719;28;20181;-60
2020/12/31 08:08:26;;;;;;;1.17;1.00;;;16.00;28.40;;;;;;5096810;28;20902;-59
2020/12/31 08:10:53;;;;;;;1.23;1.13;;;16.10;28.40;;;;;;5114375;28;20161;-60
2020/12/31 08:13:19;;;;;;;1.42;1.00;;;16.00;28.40;;;;;;5114970;28;20240;-60
2020/12/31 08:15:53;;;;;;;1.90;1.20;;;16.10;28.30;;;;;;5096952;28;20232;-59
2020/12/31 08:18:20;;;;;;;1.40;1.30;;;16.10;28.30;;;;;;5114482;28;20394;-60
2020/12/31 08:20:47;;;;;;;0.90;0.90;;;16.10;28.30;;;;;;5114714;28;20244;-59
2020/12/31 08:23:17;;;;;;;1.20;1.10;;;16.10;28.20;;;;;;5114370;28;20153;-59
2020/12/31 08:25:45;;;;;;;1.58;1.20;;;16.10;28.30;;;;;;5114547;28;20157;-59
2020/12/31 08:28:16;;;;;;;0.95;0.85;;;16.10;28.30;;;;;;5096244;28;20592;-59
2020/12/31 08:30:41;;;;;;;0.75;0.70;;;16.10;28.20;;;;;;5114532;28;20189;-60
2020/12/31 08:33:08;;;;;;;1.50;1.23;;;16.10;28.20;;;;;;5114612;28;20196;-60
2020/12/31 08:35:45;;;;;;;1.77;1.00;;;16.10;28.20;;;;;;5114459;28;20205;-59
2020/12/31 08:38:15;;;;;;;1.27;1.10;;;16.10;28.20;;;;;;5114090;28;20221;-60
2020/12/31 08:40:44;;;;;;;1.35;1.17;;;16.10;28.10;;;;;;5114466;28;20160;-59
2020/12/31 08:43:17;;;;;;;1.42;1.33;;;16.10;28.10;;;;;;5114377;28;20228;-59
2020/12/31 08:45:44;;;;;;;1.30;0.85;;;16.20;28.20;;;;;;5114340;28;20157;-59
2020/12/31 08:48:27;;;;;;;0.88;0.88;;;16.20;28.10;;;;;;5095825;28;20173;-60
2020/12/31 08:51:10;;;;;;;0.93;0.75;;;16.20;28.10;;;;;;5114046;28;20657;-60
2020/12/31 08:53:56;;;;;;;1.00;0.90;;;16.20;28.10;;;;;;5113978;28;20153;-60
2020/12/31 08:56:31;;;;;;;2.58;1.08;;;16.20;28.10;;;;;;5130373;27;20192;-60
2020/12/31 08:59:07;;;;;;;0.73;0.73;;;16.20;28.00;;;;;;5095883;28;20216;-60
2020/12/31 09:01:34;;;;;;;2.13;1.10;;;16.20;28.00;;;;;;5114238;28;20240;-59
2020/12/31 09:04:06;;;;;;;2.65;1.35;;;16.20;28.00;;;;;;5114116;28;20161;-60
2020/12/31 09:06:32;;;;;;;1.13;1.00;;;16.20;28.00;;;;;;5113959;28;20552;-59
2020/12/31 09:08:58;;;;;;;1.38;1.20;;;16.20;28.00;;;;;;5095599;28;20169;-60
2020/12/31 09:11:26;;;;;;;0.80;0.70;;;16.20;28.00;;;;;;5113974;28;20171;-60
2020/12/31 09:13:52;;;;;;;1.20;0.70;;;16.20;28.00;;;;;;5078991;28;20173;-60
2020/12/31 09:16:18;;;;;;;1.65;0.85;;;16.20;28.00;;;;;;5114250;28;20197;-60
2020/12/31 09:18:44;;;;;;;1.13;1.03;;;16.20;28.00;;;;;;5113983;28;20213;-60
2020/12/31 09:21:11;;;;;;;1.25;1.15;;;16.20;27.90;;;;;;5114587;28;20161;-60
2020/12/31 09:23:37;;;;;;;1.65;1.17;;;16.20;27.90;;;;;;5118022;28;20157;-60
2020/12/31 09:26:04;;;;;;;0.80;0.70;;;16.30;28.00;;;;;;5118338;28;20161;-60
2020/12/31 09:28:31;;;;;;;0.80;0.75;;;16.20;27.90;;;;;;5118108;28;20158;-59
2020/12/31 09:31:12;;;;;;;1.05;0.95;;;16.30;28.00;;;;;;5118236;28;20218;-60
2020/12/31 09:33:38;;;;;;;1.27;1.00;;;16.30;28.00;;;;;;5117854;28;20156;-60
2020/12/31 09:36:04;;;;;;;0.80;0.80;;;16.30;27.90;;;;;;5099563;28;20157;-61
2020/12/31 09:38:29;;;;;;;1.90;1.20;;;16.30;27.90;;;;;;5099602;28;20430;-59
2020/12/31 09:40:55;;;;;;;1.20;1.10;;;16.30;27.90;;;;;;5117879;28;20249;-59
2020/12/31 09:43:21;;;;;;;1.10;1.00;;;16.30;27.90;;;;;;5117603;28;20161;-60
2020/12/31 09:45:46;;;;;;;1.50;0.90;;;16.30;27.90;;;;;;5099421;28;20244;-60
2020/12/31 09:48:12;;;;;;;1.13;1.00;;;16.30;27.80;;;;;;5117808;28;20168;-60
2020/12/31 09:50:38;;;;;;;0.90;0.90;;;16.30;27.80;;;;;;5078910;28;20532;-60
2020/12/31 09:53:03;;;;;;;1.00;0.90;;;16.30;27.70;;;;;;5112454;28;20218;-60
2020/12/31 09:55:29;;;;;;;1.03;0.90;;;16.40;27.80;;;;;;5112804;28;20596;-60
2020/12/31 09:57:54;;;;;;;1.20;1.03;;;16.40;27.70;;;;;;5112724;28;20530;-59
2020/12/31 10:00:20;;;;;;;1.97;1.07;;;16.40;27.70;;;;;;5097147;28;20760;-59
2020/12/31 10:02:46;;;;;;;1.30;1.20;;;16.30;27.60;;;;;;5096868;28;20161;-59
2020/12/31 10:05:12;;;;;;;1.73;1.37;;;16.40;27.70;;;;;;5097122;28;20161;-59
2020/12/31 10:07:37;;;;;;;0.73;0.70;;;16.40;27.70;;;;;;5112312;28;20162;-59
2020/12/31 10:10:04;;;;;;;1.37;1.27;;;16.40;27.70;;;;;;5096962;28;20411;-61
2020/12/31 10:12:30;;;;;;;0.80;0.70;;;16.40;27.60;;;;;;5096615;28;20184;-59
2020/12/31 10:14:57;;;;;;;1.53;0.90;;;16.40;27.60;;;;;;5097243;28;20613;-60
2020/12/31 10:17:25;;;;;;;1.08;0.98;;;16.40;27.60;;;;;;5096482;28;20567;-60
2020/12/31 10:19:53;;;;;;;1.38;1.05;;;16.40;27.50;;;;;;5097196;28;20162;-60
2020/12/31 10:22:18;;;;;;;1.00;0.90;;;16.40;27.50;;;;;;5096094;28;20238;-61
2020/12/31 10:24:44;;;;;;;1.00;1.00;;;16.50;27.50;;;;;;5096747;28;20641;-61
2020/12/31 10:27:10;;;;;;;1.03;0.93;;;16.50;27.40;;;;;;5096309;28;20246;-60
2020/12/31 10:29:35;;;;;;;1.00;0.90;;;16.50;27.30;;;;;;5096737;28;20217;-60
2020/12/31 10:32:01;;;;;;;1.87;1.00;;;16.60;27.30;;;;;;5096443;28;20245;-60
2020/12/31 10:34:27;;;;;;;0.80;0.80;;;16.60;27.20;;;;;;5095416;28;20169;-61
2020/12/31 10:36:57;;;;;;;1.20;1.10;;;16.60;27.10;;;;;;5096324;28;20185;-61
2020/12/31 10:39:26;;;;;;;0.85;0.68;;;16.60;27.10;;;;;;5096420;28;20195;-60
2020/12/31 10:41:52;;;;;;;1.10;1.00;;;16.60;27.60;;;;;;5096095;28;20209;-62
2020/12/31 10:44:19;;;;;;;2.40;1.23;;;16.60;27.10;;;;;;5096232;28;20261;-61
2020/12/31 10:46:45;;;;;;;1.50;0.98;;;16.60;27.00;;;;;;5096258;28;20875;-60
2020/12/31 10:49:11;;;;;;;0.95;0.95;;;16.60;27.00;;;;;;5114790;28;20787;-62
2020/12/31 10:51:38;;;;;;;1.00;0.90;;;16.60;27.00;;;;;;5116665;28;20161;-61
2020/12/31 10:54:04;;;;;;;1.10;1.00;;;16.60;27.00;;;;;;5115933;28;20176;-61
2020/12/31 10:56:30;;;;;;;1.42;1.33;;;16.60;27.10;;;;;;5116794;28;20173;-61
2020/12/31 10:58:57;;;;;;;0.93;0.90;;;16.60;27.10;;;;;;5116329;28;20659;-61
2020/12/31 11:01:25;;;;;;;1.10;0.90;;;16.60;27.20;;;;;;5116466;28;20161;-59
2020/12/31 11:03:51;;;;;;;1.08;0.98;;;16.60;27.20;;;;;;5116427;28;20202;-62
2020/12/31 11:06:21;;;;;;;1.30;1.20;;;16.60;27.20;;;;;;5098074;28;20176;-61
2020/12/31 11:08:47;;;;;;;1.00;0.88;;;16.60;27.20;;;;;;5115815;28;20187;-61
2020/12/31 11:11:30;;;;;;;1.10;1.00;;;16.60;27.20;;;;;;5116048;28;20153;-61
2020/12/31 11:13:57;;;;;;;1.40;0.95;;;16.60;27.10;;;;;;5116132;28;20236;-61
2020/12/31 11:16:25;;;;;;;1.10;1.00;;;16.60;27.10;;;;;;5116006;28;20197;-61
2020/12/31 11:18:51;;;;;;;1.27;1.17;;;16.60;27.00;;;;;;5115967;28;20161;-62
2020/12/31 11:21:20;;;;;;;0.80;0.70;;;16.70;27.00;;;;;;5115762;28;20195;-62
2020/12/31 11:23:46;;;;;;;1.23;1.00;;;16.70;26.90;;;;;;5115464;28;20149;-60
2020/12/31 11:26:22;;;;;;;1.10;1.00;;;16.70;26.80;;;;;;5115872;28;20620;-62
2020/12/31 11:28:49;;;;;;;1.20;1.10;;;16.80;26.80;;;;;;5131541;27;20193;-62
2020/12/31 11:31:21;;;;;;;1.40;1.10;;;16.80;26.80;;;;;;5115623;28;20142;-62
2020/12/31 11:33:47;;;;;;;0.80;0.80;;;16.80;26.80;;;;;;5115979;28;20549;-62
2020/12/31 11:36:13;;;;;;;0.80;0.80;;;16.80;26.70;;;;;;5115576;28;20681;-59
2020/12/31 11:38:39;;;;;;;1.10;1.00;;;16.80;26.70;;;;;;5115167;28;20180;-61
2020/12/31 11:41:06;;;;;;;1.17;0.88;;;16.80;26.70;;;;;;5115522;28;20161;-61
2020/12/31 11:43:33;;;;;;;1.42;0.85;;;16.80;26.60;;;;;;5115237;28;20608;-61
2020/12/31 11:45:59;;;;;;;0.80;0.80;;;16.80;26.60;;;;;;5115261;28;20188;-60
2020/12/31 11:48:26;;;;;;;0.93;0.93;;;16.90;26.70;;;;;;5115327;28;20157;-60
2020/12/31 11:50:54;;;;;;;0.90;0.90;;;16.80;26.50;;;;;;5115235;28;20177;-61
2020/12/31 11:53:21;;;;;;;1.60;1.23;;;16.90;26.50;;;;;;5114658;28;20254;-61
2020/12/31 11:55:47;;;;;;;1.35;1.02;;;17.00;26.50;;;;;;5115202;28;20443;-61
2020/12/31 11:58:13;;;;;;;1.70;1.00;;;17.00;26.30;;;;;;5115213;28;20185;-60
2020/12/31 12:00:39;;;;;;;1.17;1.07;;;17.00;26.20;;;;;;5114899;28;20321;-61
2020/12/31 12:03:05;;;;;;;1.13;1.00;;;17.00;26.00;;;;;;5115060;28;20198;-60
2020/12/31 12:05:30;;;;;;;1.17;1.07;;;17.00;26.00;;;;;;5115202;28;20542;-61
2020/12/31 12:07:56;;;;;;;1.10;1.00;;;17.10;26.10;;;;;;5114602;28;20245;-61
2020/12/31 12:10:26;;;;;;;1.00;0.90;;;17.10;26.10;;;;;;5115195;28;20276;-60
2020/12/31 12:12:54;;;;;;;1.10;0.90;;;17.10;26.10;;;;;;5115219;28;20168;-60
2020/12/31 12:15:20;;;;;;;0.60;0.60;;;17.10;26.10;;;;;;5115094;28;20244;-60
2020/12/31 12:17:49;;;;;;;0.90;0.90;;;17.10;26.10;;;;;;5114755;28;20256;-61
2020/12/31 12:20:15;;;;;;;0.90;0.77;;;17.10;26.10;;;;;;5114835;28;20158;-61
2020/12/31 12:22:41;;;;;;;1.20;1.10;;;17.10;26.10;;;;;;5114084;28;20145;-61
2020/12/31 12:25:07;;;;;;;1.17;1.03;;;17.10;26.10;;;;;;5114810;28;20153;-60
2020/12/31 12:27:37;;;;;;;0.90;0.90;;;17.00;26.00;;;;;;5079549;28;20181;-62
2020/12/31 12:30:07;;;;;;;1.17;1.00;;;17.00;26.00;;;;;;5114586;28;20244;-61
2020/12/31 12:32:33;;;;;;;2.45;1.10;;;17.00;26.00;;;;;;5114445;28;20153;-63
2020/12/31 12:34:59;;;;;;;1.20;1.10;;;17.00;26.00;;;;;;5114670;28;20161;-62
2020/12/31 12:37:25;;;;;;;1.13;1.00;;;17.00;26.00;;;;;;5114023;28;20255;-62
2020/12/31 12:39:50;;;;;;;0.97;0.97;;;17.00;26.10;;;;;;5114757;28;20604;-61
2020/12/31 12:42:16;;;;;;;1.60;1.23;;;17.00;26.30;;;;;;5114744;28;20533;-62
2020/12/31 12:44:42;;;;;;;1.93;1.50;;;16.90;26.30;;;;;;5114551;28;20649;-59
2020/12/31 12:47:07;;;;;;;1.13;0.87;;;16.90;26.30;;;;;;5114475;28;20190;-60
2020/12/31 12:49:33;;;;;;;1.33;1.20;;;16.90;26.30;;;;;;5114397;28;20264;-61
2020/12/31 12:52:02;;;;;;;1.27;1.17;;;16.90;26.40;;;;;;5078746;28;20180;-60
2020/12/31 12:54:28;;;;;;;1.10;1.00;;;16.90;26.40;;;;;;5096276;28;20173;-60